»·PEaware :: WAT234 KLAS-L35

WAT234 :: KLAS-L35

FLIGHT INFORMATION

Flight Status: Arrived
Operator:
Walker Air Transport
More flights by this operator :: More flights under this callsign
Pilot: Eduardo Elias G. (24838)
Aircraft: BEECH AIRCRAFT A90-E90 KING AIR
(BE9L)
More flights by this aircraft type
Origin: KLAS McCarran Intl
United States
Destination: L35 Big Bear City
United States
More flights between these airports :: More routes between these airports
Route: +GFS HEC SOGGI V386 OKACO
File this flight plan on PilotEdge
Remarks:
Altitude:
(Current/Filed)
12,000ft
Speed:
(Current/Filed)
210kts
Departed: 15-Nov-20 09:30 PM
Arrived: 15-Nov-20 10:19 PM
Distance/Time
Traveled:
131nm/0:48
Distance/Time
To Go:
Arrived

Flight Plot

Page will automatically refresh every two minutes.

Flight plan parsing failed; only flown route is shown


Map Options




Map Legend


Flown Route
Filed Route
Departure Airport
Arrival Airport
Navaid (VOR, NDB)
Fix

Horizontal Profiles

Position Reports

Time Latitude Longitude Heading Altitude Ground
Speed
15-Nov-20 20:50 36.080458 -115.170841 125 2170ft 0kts
15-Nov-20 20:51 36.080458 -115.170841 125 2170ft 0kts
15-Nov-20 20:52 36.080458 -115.170841 125 2170ft 0kts
15-Nov-20 20:53 36.080458 -115.170841 125 2170ft 0kts
15-Nov-20 20:54 36.080458 -115.170841 125 2170ft 0kts
15-Nov-20 20:55 36.080458 -115.170841 125 2170ft 0kts
15-Nov-20 20:56 36.080458 -115.170841 125 2170ft 0kts
15-Nov-20 20:57 36.080458 -115.170841 125 2170ft 0kts
15-Nov-20 20:58 36.080458 -115.170841 125 2170ft 0kts
15-Nov-20 20:59 36.080458 -115.170841 125 2170ft 0kts
15-Nov-20 21:00 36.080458 -115.170841 125 2170ft 0kts
15-Nov-20 21:01 36.080458 -115.170841 125 2170ft 0kts
15-Nov-20 21:02 36.080458 -115.170841 125 2170ft 0kts
15-Nov-20 21:03 36.080458 -115.170840 125 2170ft 0kts
15-Nov-20 21:04 36.080458 -115.170840 125 2170ft 0kts
15-Nov-20 21:05 36.080458 -115.170840 125 2170ft 0kts
15-Nov-20 21:06 36.080458 -115.170840 125 2170ft 0kts
15-Nov-20 21:07 36.080458 -115.170840 125 2170ft 0kts
15-Nov-20 21:08 36.080458 -115.170840 125 2170ft 0kts
15-Nov-20 21:09 36.080458 -115.170840 125 2170ft 0kts
15-Nov-20 21:10 36.080458 -115.170840 125 2170ft 0kts
15-Nov-20 21:11 36.080458 -115.170840 125 2170ft 0kts
15-Nov-20 21:12 36.080458 -115.170840 125 2170ft 0kts
15-Nov-20 21:13 36.080458 -115.170840 125 2170ft 0kts
15-Nov-20 21:14 36.080457 -115.170839 125 2170ft 0kts
15-Nov-20 21:15 36.080458 -115.170840 125 2170ft 0kts
15-Nov-20 21:16 36.080458 -115.170840 125 2170ft 0kts
15-Nov-20 21:17 36.080458 -115.170840 125 2170ft 0kts
15-Nov-20 21:18 36.080458 -115.170840 125 2170ft 0kts
15-Nov-20 21:19 36.079782 -115.170214 205 2170ft 5kts
15-Nov-20 21:20 36.079116 -115.170630 271 2174ft 1kts
15-Nov-20 21:21 36.082611 -115.168579 20 2158ft 14kts
15-Nov-20 21:22 36.087188 -115.165953 27 2138ft 18kts
15-Nov-20 21:23 36.091164 -115.163694 25 2121ft 15kts
15-Nov-20 21:24 36.096077 -115.160908 24 2100ft 21kts
15-Nov-20 21:25 36.099660 -115.158261 71 2088ft 9kts
15-Nov-20 21:26 36.099811 -115.157762 71 2086ft 0kts
15-Nov-20 21:27 36.099811 -115.157762 71 2086ft 0kts
15-Nov-20 21:28 36.099811 -115.157762 71 2086ft 0kts
15-Nov-20 21:29 36.097245 -115.157831 204 2091ft 68kts
15-Nov-20 21:30 36.065155 -115.174949 203 3376ft 134kts
15-Nov-20 21:31 36.028198 -115.193637 201 4748ft 147kts
15-Nov-20 21:32 35.989959 -115.212820 201 6099ft 152kts
15-Nov-20 21:33 35.951357 -115.232282 201 7500ft 147kts
15-Nov-20 21:34 35.913390 -115.251497 201 8742ft 149kts
15-Nov-20 21:35 35.874731 -115.270658 201 9882ft 151kts
15-Nov-20 21:36 35.835326 -115.289153 201 10931ft 153kts
15-Nov-20 21:37 35.794560 -115.306806 201 11885ft 156kts
15-Nov-20 21:38 35.748685 -115.326117 201 12011ft 191kts
15-Nov-20 21:39 35.694827 -115.324919 168 12000ft 206kts
15-Nov-20 21:40 35.638286 -115.309662 169 12001ft 209kts
15-Nov-20 21:41 35.581244 -115.294565 169 12008ft 211kts
15-Nov-20 21:42 35.523880 -115.279434 169 12008ft 211kts
15-Nov-20 21:43 35.466336 -115.264277 169 12008ft 211kts
15-Nov-20 21:44 35.417404 -115.277473 249 12016ft 202kts
15-Nov-20 21:45 35.390174 -115.339061 240 11963ft 207kts
15-Nov-20 21:46 35.359570 -115.398845 239 11954ft 207kts
15-Nov-20 21:47 35.328603 -115.458358 239 11953ft 207kts
15-Nov-20 21:48 35.297635 -115.517684 238 11953ft 207kts
15-Nov-20 21:49 35.266608 -115.577022 238 11953ft 207kts
15-Nov-20 21:50 35.235495 -115.636410 238 11953ft 207kts
15-Nov-20 21:51 35.204298 -115.695859 238 11954ft 208kts
15-Nov-20 21:52 35.173051 -115.755305 238 11954ft 208kts
15-Nov-20 21:53 35.141678 -115.814888 238 11954ft 208kts
15-Nov-20 21:54 35.110347 -115.874294 238 11954ft 208kts
15-Nov-20 21:55 35.078953 -115.933718 238 11955ft 207kts
15-Nov-20 21:56 35.047728 -115.992719 238 11961ft 207kts
15-Nov-20 21:57 35.016384 -116.051847 238 11968ft 207kts
15-Nov-20 21:58 34.984926 -116.111094 238 11975ft 208kts
15-Nov-20 22:00 34.953520 -116.170141 238 11981ft 208kts
15-Nov-20 22:01 34.921875 -116.229537 238 11982ft 208kts
15-Nov-20 22:02 34.890140 -116.289000 238 11981ft 209kts
15-Nov-20 22:03 34.858499 -116.348186 238 11997ft 208kts
15-Nov-20 22:04 34.826878 -116.407242 238 12028ft 208kts
15-Nov-20 22:05 34.793448 -116.465105 213 11932ft 215kts
15-Nov-20 22:06 34.743964 -116.501862 212 12134ft 209kts
15-Nov-20 22:07 34.693875 -116.538667 212 12164ft 211kts
15-Nov-20 22:08 34.643503 -116.575587 212 12164ft 212kts
15-Nov-20 22:09 34.592769 -116.612714 212 12164ft 213kts
15-Nov-20 22:10 34.542189 -116.649673 212 12164ft 213kts
15-Nov-20 22:11 34.489612 -116.672562 163 12165ft 201kts
15-Nov-20 22:12 34.439699 -116.653243 161 12161ft 175kts
15-Nov-20 22:13 34.393770 -116.636880 186 11773ft 178kts
15-Nov-20 22:14 34.365915 -116.683897 237 11170ft 178kts
15-Nov-20 22:15 34.338562 -116.729654 233 10886ft 163kts
15-Nov-20 22:16 34.310597 -116.772017 232 10132ft 144kts
15-Nov-20 22:17 34.282471 -116.800194 214 8847ft 120kts
15-Nov-20 22:18 34.263696 -116.830104 271 7204ft 116kts
15-Nov-20 22:19 34.263917 -116.860200 269 6755ft 30kts
15-Nov-20 22:19 34.263878 -116.864747 273 6754ft 14kts
15-Nov-20 22:21 34.263368 -116.865798 158 6755ft 0kts
15-Nov-20 22:21 34.263368 -116.865798 158 6755ft 0kts
15-Nov-20 22:22 34.263328 -116.865630 94 6755ft 2kts
15-Nov-20 22:23 34.263295 -116.865758 334 6755ft 0kts
15-Nov-20 22:24 34.263295 -116.865758 334 6755ft 0kts
15-Nov-20 22:25 34.263295 -116.865758 334 6755ft 0kts
15-Nov-20 22:26 34.263792 -116.865834 12 6755ft 6kts
15-Nov-20 22:27 34.263817 -116.841743 91 7036ft 136kts
15-Nov-20 22:28 34.278100 -116.803469 63 8852ft 129kts
15-Nov-20 22:30 34.275660 -116.746829 97 9670ft 182kts
15-Nov-20 22:30 34.268536 -116.693735 97 9746ft 198kts
15-Nov-20 22:31 34.259872 -116.628530 97 9747ft 204kts
15-Nov-20 22:32 34.224884 -116.575722 141 9747ft 208kts

Navigation Log

Ident Type
Flight plan parsing failed, navigation log unavailable